Aeroporto :
LOGIN :

Iscrizione | Disclaimer

   EN    FR    IT 

 










Sommario :    VFR   VFR Marginale   IFR   IFR Intensivo   IFR Molto Intensivo
Visibilità : 
Base nubi : 
>= 8 km
>= 3000ft
5 / 8 km
1000 / 3000 ft
1500m / 5 km
500 / 1000 ft
800 / 1500m
200 / 500 ft
< 800m
< 200 ft
Simboli :   Temporali  Nebbia  Neve Forte  Precipitazioni Forti  Vento > 20 kt
SIGMETs :   Varie  Temporali  Ghiacco  Turbolenza  Onda orograficha  Ceneri Vulcaniche






- Altitudine del aeroporto : 610 ft
- Codice IATA : VXO


ESMX - Växjö Kronoberg

ULTIMO METAR :
  • 121820Z 18006KT 7000 BR OVC002 02/02 Q0995

METARs OBSOLETI :
  • 121750Z 17005KT 4500 BR VV002 02/02 Q0995
  • 121720Z 18007KT 4000 BR OVC002 02/02 Q0995
  • 121650Z 18008KT 3600 BR OVC001 02/02 Q0995
  • 121620Z 18006KT 1700 BR OVC002 02/02 Q0995
  • 121550Z 19006KT 3000 BR OVC002 02/02 Q0996

TAF TAF ESMX
Valido dal 12 a 18 ore il 12 a 22 ore UTC


121730Z 1218/1222 17005KT 5000 OVC002
TEMPO 1218/1221 2000 DZ BR BKN005
PROB40 1221/1222 2500 -SHSNRA SCT003 BKN015CB



MetMap, La meteo Aeronautica in un colpo d'occhio ! - Copyright ORBIFLY Dicembre 2007 - Disclaimer

ORBIFLY MET'MAP TEAM :

Programmazione e sviluppo : Alexandra Zaïnal
Concezione : Baudouin d'Aumeries
Aiuto per la programmazione : Marc-Olivier Méhu
Supporto tecnico e logistico : Manuel Goepfert
Aiuto per la traduzione : Arnaldo La Scala

Contatto : metmap@orbifly.com




FONTI E CREDITI :

   NOAA